sensor_id;sensor_type;location;lat;lon;timestamp;temperature;humidity
18281;DHT22;9266;51.132;17.062;2024-01-06T00:00:00;2.60;99.90
18281;DHT22;9266;51.132;17.062;2024-01-06T00:02:28;2.50;1.00
18281;DHT22;9266;51.132;17.062;2024-01-06T00:04:55;2.60;99.90
18281;DHT22;9266;51.132;17.062;2024-01-06T00:07:22;2.60;1.00
18281;DHT22;9266;51.132;17.062;2024-01-06T00:09:49;2.50;99.90
18281;DHT22;9266;51.132;17.062;2024-01-06T00:12:16;2.60;1.00
18281;DHT22;9266;51.132;17.062;2024-01-06T00:14:45;2.50;1.00
18281;DHT22;9266;51.132;17.062;2024-01-06T00:17:12;2.50;1.00
18281;DHT22;9266;51.132;17.062;2024-01-06T00:19:39;2.60;99.90
18281;DHT22;9266;51.132;17.062;2024-01-06T00:22:06;2.50;99.90
18281;DHT22;9266;51.132;17.062;2024-01-06T00:24:33;2.70;99.90
18281;DHT22;9266;51.132;17.062;2024-01-06T00:27:00;2.60;1.00
18281;DHT22;9266;51.132;17.062;2024-01-06T00:29:27;2.60;1.00
18281;DHT22;9266;51.132;17.062;2024-01-06T00:31:55;2.50;1.00
18281;DHT22;9266;51.132;17.062;2024-01-06T00:34:22;2.60;1.00
18281;DHT22;9266;51.132;17.062;2024-01-06T00:36:49;2.50;99.90
18281;DHT22;9266;51.132;17.062;2024-01-06T00:39:16;2.50;1.00
18281;DHT22;9266;51.132;17.062;2024-01-06T00:41:44;2.60;1.00
18281;DHT22;9266;51.132;17.062;2024-01-06T00:44:11;2.50;99.90
18281;DHT22;9266;51.132;17.062;2024-01-06T00:46:39;2.50;99.90
18281;DHT22;9266;51.132;17.062;2024-01-06T00:49:07;2.60;99.90
18281;DHT22;9266;51.132;17.062;2024-01-06T00:51:34;2.60;1.00
18281;DHT22;9266;51.132;17.062;2024-01-06T00:54:01;2.60;1.00
18281;DHT22;9266;51.132;17.062;2024-01-06T00:56:28;2.50;99.90
18281;DHT22;9266;51.132;17.062;2024-01-06T00:58:55;2.60;99.90
18281;DHT22;9266;51.132;17.062;2024-01-06T01:01:22;2.60;99.90
18281;DHT22;9266;51.132;17.062;2024-01-06T01:03:49;4.30;99.90
18281;DHT22;9266;51.132;17.062;2024-01-06T01:06:17;2.70;1.00
18281;DHT22;9266;51.132;17.062;2024-01-06T01:08:44;2.70;1.00
18281;DHT22;9266;51.132;17.062;2024-01-06T01:11:11;2.60;99.90
18281;DHT22;9266;51.132;17.062;2024-01-06T01:13:38;2.60;1.00
18281;DHT22;9266;51.132;17.062;2024-01-06T01:16:05;2.70;4.90
18281;DHT22;9266;51.132;17.062;2024-01-06T01:18:32;2.60;99.90
18281;DHT22;9266;51.132;17.062;2024-01-06T01:20:59;2.60;99.90
18281;DHT22;9266;51.132;17.062;2024-01-06T01:23:27;2.70;99.90
18281;DHT22;9266;51.132;17.062;2024-01-06T01:25:54;2.70;99.90
18281;DHT22;9266;51.132;17.062;2024-01-06T01:28:21;2.70;99.90
18281;DHT22;9266;51.132;17.062;2024-01-06T01:30:48;2.80;99.90
18281;DHT22;9266;51.132;17.062;2024-01-06T01:33:15;2.80;99.90
18281;DHT22;9266;51.132;17.062;2024-01-06T01:35:42;2.80;1.00
18281;DHT22;9266;51.132;17.062;2024-01-06T01:38:09;2.90;1.00
18281;DHT22;9266;51.132;17.062;2024-01-06T01:40:37;2.80;99.90
18281;DHT22;9266;51.132;17.062;2024-01-06T01:43:04;2.70;1.00
18281;DHT22;9266;51.132;17.062;2024-01-06T01:45:32;2.70;1.00
18281;DHT22;9266;51.132;17.062;2024-01-06T01:47:59;2.60;99.90
18281;DHT22;9266;51.132;17.062;2024-01-06T01:50:26;2.70;1.00
18281;DHT22;9266;51.132;17.062;2024-01-06T01:52:56;2.60;1.00
18281;DHT22;9266;51.132;17.062;2024-01-06T01:55:22;2.50;1.00
18281;DHT22;9266;51.132;17.062;2024-01-06T01:57:51;2.60;99.90
18281;DHT22;9266;51.132;17.062;2024-01-06T02:00:19;2.30;1.00
18281;DHT22;9266;51.132;17.062;2024-01-06T02:02:46;2.60;1.00
18281;DHT22;9266;51.132;17.062;2024-01-06T02:05:13;2.60;99.90
18281;DHT22;9266;51.132;17.062;2024-01-06T02:07:40;2.60;99.90
18281;DHT22;9266;51.132;17.062;2024-01-06T02:10:08;2.50;11.50
18281;DHT22;9266;51.132;17.062;2024-01-06T02:12:34;2.60;2.60
18281;DHT22;9266;51.132;17.062;2024-01-06T02:15:03;2.60;1.00
18281;DHT22;9266;51.132;17.062;2024-01-06T02:17:31;2.60;1.00
18281;DHT22;9266;51.132;17.062;2024-01-06T02:19:57;2.60;1.00
18281;DHT22;9266;51.132;17.062;2024-01-06T02:22:26;2.60;1.00
18281;DHT22;9266;51.132;17.062;2024-01-06T02:24:53;2.60;99.90
18281;DHT22;9266;51.132;17.062;2024-01-06T02:27:20;2.60;1.00
18281;DHT22;9266;51.132;17.062;2024-01-06T02:29:47;2.60;1.00
18281;DHT22;9266;51.132;17.062;2024-01-06T02:32:14;2.60;1.00
18281;DHT22;9266;51.132;17.062;2024-01-06T02:34:41;2.50;1.00
18281;DHT22;9266;51.132;17.062;2024-01-06T02:37:09;2.50;1.00
18281;DHT22;9266;51.132;17.062;2024-01-06T02:39:37;2.40;1.00
18281;DHT22;9266;51.132;17.062;2024-01-06T02:42:05;2.50;1.00
18281;DHT22;9266;51.132;17.062;2024-01-06T02:44:32;2.50;99.90
18281;DHT22;9266;51.132;17.062;2024-01-06T02:46:59;2.40;28.30
18281;DHT22;9266;51.132;17.062;2024-01-06T02:49:26;2.40;1.00
18281;DHT22;9266;51.132;17.062;2024-01-06T02:51:52;2.40;1.00
18281;DHT22;9266;51.132;17.062;2024-01-06T02:54:19;2.30;1.00
18281;DHT22;9266;51.132;17.062;2024-01-06T02:56:48;2.40;1.00
18281;DHT22;9266;51.132;17.062;2024-01-06T02:59:14;2.40;1.00
18281;DHT22;9266;51.132;17.062;2024-01-06T03:01:41;2.40;1.00
18281;DHT22;9266;51.132;17.062;2024-01-06T03:04:08;2.40;1.00
18281;DHT22;9266;51.132;17.062;2024-01-06T03:06:35;2.40;1.00
18281;DHT22;9266;51.132;17.062;2024-01-06T03:09:02;2.40;1.00
18281;DHT22;9266;51.132;17.062;2024-01-06T03:11:29;2.40;99.90
18281;DHT22;9266;51.132;17.062;2024-01-06T03:13:57;2.40;99.90
18281;DHT22;9266;51.132;17.062;2024-01-06T03:16:24;2.30;75.40
18281;DHT22;9266;51.132;17.062;2024-01-06T03:18:51;2.30;99.90
18281;DHT22;9266;51.132;17.062;2024-01-06T03:21:18;2.30;1.00
18281;DHT22;9266;51.132;17.062;2024-01-06T03:23:46;2.30;1.00
18281;DHT22;9266;51.132;17.062;2024-01-06T03:26:13;2.30;99.90
18281;DHT22;9266;51.132;17.062;2024-01-06T03:28:40;2.40;99.90
18281;DHT22;9266;51.132;17.062;2024-01-06T03:31:08;2.40;99.90
18281;DHT22;9266;51.132;17.062;2024-01-06T03:33:35;2.40;39.50
18281;DHT22;9266;51.132;17.062;2024-01-06T03:36:04;2.40;1.00
18281;DHT22;9266;51.132;17.062;2024-01-06T03:38:32;2.40;1.00
18281;DHT22;9266;51.132;17.062;2024-01-06T03:40:59;2.30;28.00
18281;DHT22;9266;51.132;17.062;2024-01-06T03:43:26;2.30;1.00
18281;DHT22;9266;51.132;17.062;2024-01-06T03:45:53;2.30;1.00
18281;DHT22;9266;51.132;17.062;2024-01-06T03:48:22;2.30;1.00
18281;DHT22;9266;51.132;17.062;2024-01-06T03:50:49;2.30;1.00
18281;DHT22;9266;51.132;17.062;2024-01-06T03:53:16;2.30;99.90
18281;DHT22;9266;51.132;17.062;2024-01-06T03:55:43;2.40;99.90
18281;DHT22;9266;51.132;17.062;2024-01-06T03:58:10;2.30;1.00
18281;DHT22;9266;51.132;17.062;2024-01-06T04:00:37;2.30;99.90
18281;DHT22;9266;51.132;17.062;2024-01-06T04:03:04;2.30;1.00
18281;DHT22;9266;51.132;17.062;2024-01-06T04:05:33;2.40;1.00
18281;DHT22;9266;51.132;17.062;2024-01-06T04:08:00;2.50;1.00
18281;DHT22;9266;51.132;17.062;2024-01-06T04:10:27;2.50;1.00
18281;DHT22;9266;51.132;17.062;2024-01-06T04:12:54;2.50;1.00
18281;DHT22;9266;51.132;17.062;2024-01-06T04:15:21;2.40;99.90
18281;DHT22;9266;51.132;17.062;2024-01-06T04:17:49;2.50;1.00
18281;DHT22;9266;51.132;17.062;2024-01-06T04:20:16;2.40;99.90
18281;DHT22;9266;51.132;17.062;2024-01-06T04:22:44;2.30;1.00
18281;DHT22;9266;51.132;17.062;2024-01-06T04:25:11;2.40;99.90
18281;DHT22;9266;51.132;17.062;2024-01-06T04:27:38;2.40;1.00
18281;DHT22;9266;51.132;17.062;2024-01-06T04:30:06;2.40;1.00
18281;DHT22;9266;51.132;17.062;2024-01-06T04:32:33;2.40;1.00
18281;DHT22;9266;51.132;17.062;2024-01-06T04:34:59;2.40;43.40
18281;DHT22;9266;51.132;17.062;2024-01-06T04:37:26;2.40;1.00
18281;DHT22;9266;51.132;17.062;2024-01-06T04:39:55;2.20;99.90
18281;DHT22;9266;51.132;17.062;2024-01-06T04:42:22;2.20;1.00
18281;DHT22;9266;51.132;17.062;2024-01-06T04:44:49;2.10;1.00
18281;DHT22;9266;51.132;17.062;2024-01-06T04:47:16;2.20;99.90
18281;DHT22;9266;51.132;17.062;2024-01-06T04:49:43;2.20;1.00
18281;DHT22;9266;51.132;17.062;2024-01-06T04:52:10;2.20;99.90
18281;DHT22;9266;51.132;17.062;2024-01-06T04:54:37;2.20;1.00
18281;DHT22;9266;51.132;17.062;2024-01-06T04:57:05;2.20;1.00
18281;DHT22;9266;51.132;17.062;2024-01-06T04:59:32;2.30;1.00
18281;DHT22;9266;51.132;17.062;2024-01-06T05:01:59;2.30;1.00
18281;DHT22;9266;51.132;17.062;2024-01-06T05:04:26;2.20;1.00
18281;DHT22;9266;51.132;17.062;2024-01-06T05:06:54;2.20;99.90
18281;DHT22;9266;51.132;17.062;2024-01-06T05:09:21;2.20;1.00
18281;DHT22;9266;51.132;17.062;2024-01-06T05:11:47;2.30;99.90
18281;DHT22;9266;51.132;17.062;2024-01-06T05:14:16;2.30;1.00
18281;DHT22;9266;51.132;17.062;2024-01-06T05:16:43;2.30;82.60
18281;DHT22;9266;51.132;17.062;2024-01-06T05:19:10;2.20;99.90
18281;DHT22;9266;51.132;17.062;2024-01-06T05:21:37;2.20;98.90
18281;DHT22;9266;51.132;17.062;2024-01-06T05:24:04;2.20;1.00
18281;DHT22;9266;51.132;17.062;2024-01-06T05:26:31;2.30;1.00
18281;DHT22;9266;51.132;17.062;2024-01-06T05:28:58;2.20;1.00
18281;DHT22;9266;51.132;17.062;2024-01-06T05:31:27;2.20;1.00
18281;DHT22;9266;51.132;17.062;2024-01-06T05:33:53;2.20;99.90
18281;DHT22;9266;51.132;17.062;2024-01-06T05:36:20;2.10;1.00
18281;DHT22;9266;51.132;17.062;2024-01-06T05:38:47;2.20;99.90
18281;DHT22;9266;51.132;17.062;2024-01-06T05:41:14;2.40;1.00
18281;DHT22;9266;51.132;17.062;2024-01-06T05:43:41;2.30;99.90
18281;DHT22;9266;51.132;17.062;2024-01-06T05:46:08;2.40;1.00
18281;DHT22;9266;51.132;17.062;2024-01-06T05:48:37;2.40;1.00
18281;DHT22;9266;51.132;17.062;2024-01-06T05:51:06;2.40;99.90
18281;DHT22;9266;51.132;17.062;2024-01-06T05:53:33;2.30;1.00
18281;DHT22;9266;51.132;17.062;2024-01-06T05:56:00;2.40;99.90
18281;DHT22;9266;51.132;17.062;2024-01-06T05:58:27;2.40;1.00
18281;DHT22;9266;51.132;17.062;2024-01-06T06:00:54;2.30;1.00
18281;DHT22;9266;51.132;17.062;2024-01-06T06:03:20;2.30;99.90
18281;DHT22;9266;51.132;17.062;2024-01-06T06:05:49;2.40;99.90
18281;DHT22;9266;51.132;17.062;2024-01-06T06:08:16;2.20;1.00
18281;DHT22;9266;51.132;17.062;2024-01-06T06:10:43;2.20;1.00
18281;DHT22;9266;51.132;17.062;2024-01-06T06:13:27;2.20;1.00
18281;DHT22;9266;51.132;17.062;2024-01-06T06:15:53;2.20;1.00
18281;DHT22;9266;51.132;17.062;2024-01-06T06:18:21;2.20;99.90
18281;DHT22;9266;51.132;17.062;2024-01-06T06:20:49;2.20;99.90
18281;DHT22;9266;51.132;17.062;2024-01-06T06:23:16;2.20;99.90
18281;DHT22;9266;51.132;17.062;2024-01-06T06:25:43;2.20;96.80
18281;DHT22;9266;51.132;17.062;2024-01-06T06:28:10;2.20;1.00
18281;DHT22;9266;51.132;17.062;2024-01-06T06:30:36;2.10;99.90
18281;DHT22;9266;51.132;17.062;2024-01-06T06:33:04;2.00;32.70
18281;DHT22;9266;51.132;17.062;2024-01-06T06:35:31;2.00;1.00
18281;DHT22;9266;51.132;17.062;2024-01-06T06:37:59;1.80;1.00
18281;DHT22;9266;51.132;17.062;2024-01-06T06:40:26;1.90;99.90
18281;DHT22;9266;51.132;17.062;2024-01-06T06:42:53;1.90;99.90
18281;DHT22;9266;51.132;17.062;2024-01-06T06:45:20;2.00;99.90
18281;DHT22;9266;51.132;17.062;2024-01-06T06:47:48;1.90;99.90
18281;DHT22;9266;51.132;17.062;2024-01-06T06:50:15;1.80;1.00
18281;DHT22;9266;51.132;17.062;2024-01-06T06:52:42;1.80;1.00
18281;DHT22;9266;51.132;17.062;2024-01-06T06:55:11;1.80;1.00
18281;DHT22;9266;51.132;17.062;2024-01-06T06:57:38;1.80;99.90
18281;DHT22;9266;51.132;17.062;2024-01-06T07:00:06;1.80;1.00
18281;DHT22;9266;51.132;17.062;2024-01-06T07:02:34;1.80;1.00
18281;DHT22;9266;51.132;17.062;2024-01-06T07:05:00;1.80;99.90
18281;DHT22;9266;51.132;17.062;2024-01-06T07:07:27;1.80;99.90
18281;DHT22;9266;51.132;17.062;2024-01-06T07:09:54;1.90;99.90
18281;DHT22;9266;51.132;17.062;2024-01-06T07:12:22;2.00;1.00
18281;DHT22;9266;51.132;17.062;2024-01-06T07:14:51;2.00;1.00
18281;DHT22;9266;51.132;17.062;2024-01-06T07:17:18;2.10;1.00
18281;DHT22;9266;51.132;17.062;2024-01-06T07:19:45;2.10;25.40
18281;DHT22;9266;51.132;17.062;2024-01-06T07:22:11;2.10;99.90
18281;DHT22;9266;51.132;17.062;2024-01-06T07:24:38;2.20;1.00
18281;DHT22;9266;51.132;17.062;2024-01-06T07:27:05;2.10;1.00
18281;DHT22;9266;51.132;17.062;2024-01-06T07:29:33;2.10;52.40
18281;DHT22;9266;51.132;17.062;2024-01-06T07:32:00;2.20;1.00
18281;DHT22;9266;51.132;17.062;2024-01-06T07:34:27;2.20;1.00
18281;DHT22;9266;51.132;17.062;2024-01-06T07:36:54;2.20;99.90
18281;DHT22;9266;51.132;17.062;2024-01-06T07:39:21;2.10;99.90
18281;DHT22;9266;51.132;17.062;2024-01-06T07:41:49;2.00;1.00
18281;DHT22;9266;51.132;17.062;2024-01-06T07:44:16;2.00;99.90
18281;DHT22;9266;51.132;17.062;2024-01-06T07:46:49;1.90;99.90
18281;DHT22;9266;51.132;17.062;2024-01-06T07:49:16;1.90;1.00
18281;DHT22;9266;51.132;17.062;2024-01-06T07:51:43;1.80;99.90
18281;DHT22;9266;51.132;17.062;2024-01-06T07:54:10;1.90;1.00
18281;DHT22;9266;51.132;17.062;2024-01-06T07:56:37;1.90;1.00
18281;DHT22;9266;51.132;17.062;2024-01-06T07:59:04;2.00;99.90
18281;DHT22;9266;51.132;17.062;2024-01-06T08:01:31;2.00;99.90
18281;DHT22;9266;51.132;17.062;2024-01-06T08:04:00;2.10;1.00
18281;DHT22;9266;51.132;17.062;2024-01-06T08:06:27;1.80;1.00
18281;DHT22;9266;51.132;17.062;2024-01-06T08:08:54;1.90;99.90
18281;DHT22;9266;51.132;17.062;2024-01-06T08:11:21;1.90;1.00
18281;DHT22;9266;51.132;17.062;2024-01-06T08:13:48;1.90;1.00
18281;DHT22;9266;51.132;17.062;2024-01-06T08:16:15;1.90;1.00
18281;DHT22;9266;51.132;17.062;2024-01-06T08:18:42;1.90;1.00
18281;DHT22;9266;51.132;17.062;2024-01-06T08:21:10;1.90;1.00
18281;DHT22;9266;51.132;17.062;2024-01-06T08:23:37;1.90;99.90
18281;DHT22;9266;51.132;17.062;2024-01-06T08:26:05;1.90;99.90
18281;DHT22;9266;51.132;17.062;2024-01-06T08:28:32;1.80;1.00
18281;DHT22;9266;51.132;17.062;2024-01-06T08:30:59;1.80;99.90
18281;DHT22;9266;51.132;17.062;2024-01-06T08:33:26;1.90;1.00
18281;DHT22;9266;51.132;17.062;2024-01-06T08:35:52;1.90;1.00
18281;DHT22;9266;51.132;17.062;2024-01-06T08:38:21;1.90;99.90
18281;DHT22;9266;51.132;17.062;2024-01-06T08:40:49;1.90;1.00
18281;DHT22;9266;51.132;17.062;2024-01-06T08:43:16;1.80;99.90
18281;DHT22;9266;51.132;17.062;2024-01-06T08:45:43;1.70;1.00
18281;DHT22;9266;51.132;17.062;2024-01-06T08:48:10;1.70;1.00
18281;DHT22;9266;51.132;17.062;2024-01-06T08:50:37;1.70;1.00
18281;DHT22;9266;51.132;17.062;2024-01-06T08:53:04;1.70;23.80
18281;DHT22;9266;51.132;17.062;2024-01-06T08:55:32;1.70;1.00
18281;DHT22;9266;51.132;17.062;2024-01-06T08:57:59;1.70;1.00
18281;DHT22;9266;51.132;17.062;2024-01-06T09:00:26;1.70;99.90
18281;DHT22;9266;51.132;17.062;2024-01-06T09:02:53;1.60;1.00
18281;DHT22;9266;51.132;17.062;2024-01-06T09:05:20;1.60;1.00
18281;DHT22;9266;51.132;17.062;2024-01-06T09:07:47;1.60;1.00
18281;DHT22;9266;51.132;17.062;2024-01-06T09:10:16;1.70;1.00
18281;DHT22;9266;51.132;17.062;2024-01-06T09:12:44;1.60;1.00
18281;DHT22;9266;51.132;17.062;2024-01-06T09:15:11;1.60;99.90
18281;DHT22;9266;51.132;17.062;2024-01-06T09:17:38;1.60;1.00
18281;DHT22;9266;51.132;17.062;2024-01-06T09:20:06;1.70;91.40
18281;DHT22;9266;51.132;17.062;2024-01-06T09:22:33;1.70;99.90
18281;DHT22;9266;51.132;17.062;2024-01-06T09:25:00;1.70;1.00
18281;DHT22;9266;51.132;17.062;2024-01-06T09:27:27;1.80;1.00
18281;DHT22;9266;51.132;17.062;2024-01-06T09:29:55;1.80;1.00
18281;DHT22;9266;51.132;17.062;2024-01-06T09:32:22;1.80;99.90
18281;DHT22;9266;51.132;17.062;2024-01-06T09:34:49;1.80;99.90
18281;DHT22;9266;51.132;17.062;2024-01-06T09:37:16;1.80;1.00
18281;DHT22;9266;51.132;17.062;2024-01-06T09:39:43;1.80;99.90
18281;DHT22;9266;51.132;17.062;2024-01-06T09:42:10;1.80;99.90
18281;DHT22;9266;51.132;17.062;2024-01-06T09:44:37;1.60;1.00
18281;DHT22;9266;51.132;17.062;2024-01-06T09:47:06;1.70;1.00
18281;DHT22;9266;51.132;17.062;2024-01-06T09:49:38;1.60;1.00
18281;DHT22;9266;51.132;17.062;2024-01-06T09:52:13;1.50;1.00
18281;DHT22;9266;51.132;17.062;2024-01-06T09:54:45;1.50;1.00
18281;DHT22;9266;51.132;17.062;2024-01-06T09:57:13;1.50;4.80
18281;DHT22;9266;51.132;17.062;2024-01-06T09:59:40;1.50;86.00
18281;DHT22;9266;51.132;17.062;2024-01-06T10:02:14;1.40;95.80
18281;DHT22;9266;51.132;17.062;2024-01-06T10:04:41;1.40;98.40
18281;DHT22;9266;51.132;17.062;2024-01-06T10:07:08;1.40;1.00
18281;DHT22;9266;51.132;17.062;2024-01-06T10:09:40;1.40;1.00
18281;DHT22;9266;51.132;17.062;2024-01-06T10:12:08;1.40;1.00
18281;DHT22;9266;51.132;17.062;2024-01-06T10:14:35;1.50;1.00
18281;DHT22;9266;51.132;17.062;2024-01-06T10:17:05;1.40;1.00
18281;DHT22;9266;51.132;17.062;2024-01-06T10:19:34;1.50;1.00
18281;DHT22;9266;51.132;17.062;2024-01-06T10:22:02;1.40;99.90
18281;DHT22;9266;51.132;17.062;2024-01-06T10:24:29;1.40;99.90
18281;DHT22;9266;51.132;17.062;2024-01-06T10:26:57;1.40;99.90
18281;DHT22;9266;51.132;17.062;2024-01-06T10:29:25;1.40;1.00
18281;DHT22;9266;51.132;17.062;2024-01-06T10:31:53;1.50;99.90
18281;DHT22;9266;51.132;17.062;2024-01-06T10:34:20;1.50;1.00
18281;DHT22;9266;51.132;17.062;2024-01-06T10:36:49;1.50;1.00
18281;DHT22;9266;51.132;17.062;2024-01-06T10:39:17;1.60;1.00
18281;DHT22;9266;51.132;17.062;2024-01-06T10:41:45;1.70;1.00
18281;DHT22;9266;51.132;17.062;2024-01-06T10:44:13;1.60;99.90
18281;DHT22;9266;51.132;17.062;2024-01-06T10:46:41;1.70;1.00
18281;DHT22;9266;51.132;17.062;2024-01-06T10:49:09;1.50;1.00
18281;DHT22;9266;51.132;17.062;2024-01-06T10:51:37;1.60;1.00
18281;DHT22;9266;51.132;17.062;2024-01-06T10:54:06;1.50;99.90
18281;DHT22;9266;51.132;17.062;2024-01-06T10:56:37;1.50;1.00
18281;DHT22;9266;51.132;17.062;2024-01-06T10:59:04;1.60;51.70
18281;DHT22;9266;51.132;17.062;2024-01-06T11:01:33;1.40;1.00
18281;DHT22;9266;51.132;17.062;2024-01-06T11:04:02;1.40;1.00
18281;DHT22;9266;51.132;17.062;2024-01-06T11:06:30;1.60;1.00
18281;DHT22;9266;51.132;17.062;2024-01-06T11:09:08;1.60;1.00
18281;DHT22;9266;51.132;17.062;2024-01-06T11:11:38;1.50;1.00
18281;DHT22;9266;51.132;17.062;2024-01-06T11:14:18;1.50;1.00
18281;DHT22;9266;51.132;17.062;2024-01-06T11:16:46;1.40;1.00
18281;DHT22;9266;51.132;17.062;2024-01-06T11:19:43;1.30;1.00
18281;DHT22;9266;51.132;17.062;2024-01-06T11:22:23;1.30;1.00
18281;DHT22;9266;51.132;17.062;2024-01-06T11:24:51;1.30;1.00
18281;DHT22;9266;51.132;17.062;2024-01-06T11:27:20;1.30;1.00
18281;DHT22;9266;51.132;17.062;2024-01-06T11:29:48;1.30;1.00
18281;DHT22;9266;51.132;17.062;2024-01-06T11:32:18;1.30;1.00
18281;DHT22;9266;51.132;17.062;2024-01-06T11:34:49;1.20;1.00
18281;DHT22;9266;51.132;17.062;2024-01-06T11:37:19;1.30;19.40
18281;DHT22;9266;51.132;17.062;2024-01-06T11:39:46;1.30;75.70
18281;DHT22;9266;51.132;17.062;2024-01-06T11:42:14;0.00;84.20
18281;DHT22;9266;51.132;17.062;2024-01-06T11:44:45;1.30;21.90
18281;DHT22;9266;51.132;17.062;2024-01-06T11:47:17;1.30;1.00
18281;DHT22;9266;51.132;17.062;2024-01-06T11:49:53;1.20;2.30
18281;DHT22;9266;51.132;17.062;2024-01-06T11:52:21;1.30;84.90
18281;DHT22;9266;51.132;17.062;2024-01-06T11:54:49;1.30;1.00
18281;DHT22;9266;51.132;17.062;2024-01-06T11:57:16;1.20;1.00
18281;DHT22;9266;51.132;17.062;2024-01-06T11:59:45;1.20;1.00
18281;DHT22;9266;51.132;17.062;2024-01-06T12:02:12;1.30;1.00
18281;DHT22;9266;51.132;17.062;2024-01-06T12:04:39;1.30;99.90
18281;DHT22;9266;51.132;17.062;2024-01-06T12:07:08;1.20;99.90
18281;DHT22;9266;51.132;17.062;2024-01-06T12:09:35;1.30;99.90
18281;DHT22;9266;51.132;17.062;2024-01-06T12:12:03;1.30;1.00
18281;DHT22;9266;51.132;17.062;2024-01-06T12:14:31;1.30;99.90
18281;DHT22;9266;51.132;17.062;2024-01-06T12:17:00;1.30;1.00
18281;DHT22;9266;51.132;17.062;2024-01-06T12:19:29;1.40;1.00
18281;DHT22;9266;51.132;17.062;2024-01-06T12:21:56;1.50;62.40
18281;DHT22;9266;51.132;17.062;2024-01-06T12:24:23;1.40;1.00
18281;DHT22;9266;51.132;17.062;2024-01-06T12:26:50;1.30;1.00
18281;DHT22;9266;51.132;17.062;2024-01-06T12:29:17;1.40;1.00
18281;DHT22;9266;51.132;17.062;2024-01-06T12:31:47;1.30;1.00
18281;DHT22;9266;51.132;17.062;2024-01-06T12:34:15;1.30;99.90
18281;DHT22;9266;51.132;17.062;2024-01-06T12:36:42;1.30;1.00
18281;DHT22;9266;51.132;17.062;2024-01-06T12:39:13;1.40;99.90
18281;DHT22;9266;51.132;17.062;2024-01-06T12:41:40;1.50;99.90
18281;DHT22;9266;51.132;17.062;2024-01-06T12:44:07;1.40;1.00
18281;DHT22;9266;51.132;17.062;2024-01-06T12:46:34;1.30;1.00
18281;DHT22;9266;51.132;17.062;2024-01-06T12:49:02;1.20;48.40
18281;DHT22;9266;51.132;17.062;2024-01-06T12:51:30;1.10;3.00
18281;DHT22;9266;51.132;17.062;2024-01-06T12:53:57;1.10;99.90
18281;DHT22;9266;51.132;17.062;2024-01-06T12:56:24;1.10;1.00
18281;DHT22;9266;51.132;17.062;2024-01-06T12:58:51;1.20;1.00
18281;DHT22;9266;51.132;17.062;2024-01-06T13:01:18;1.20;99.90
18281;DHT22;9266;51.132;17.062;2024-01-06T13:03:45;1.20;1.00
18281;DHT22;9266;51.132;17.062;2024-01-06T13:06:12;1.20;99.90
18281;DHT22;9266;51.132;17.062;2024-01-06T13:08:41;1.10;99.90
18281;DHT22;9266;51.132;17.062;2024-01-06T13:11:09;1.10;99.90
18281;DHT22;9266;51.132;17.062;2024-01-06T13:13:36;1.20;1.00
18281;DHT22;9266;51.132;17.062;2024-01-06T13:16:03;1.10;1.00
18281;DHT22;9266;51.132;17.062;2024-01-06T13:18:30;1.10;65.10
18281;DHT22;9266;51.132;17.062;2024-01-06T13:20:57;1.20;1.00
18281;DHT22;9266;51.132;17.062;2024-01-06T13:23:24;1.10;1.00
18281;DHT22;9266;51.132;17.062;2024-01-06T13:25:53;1.20;99.90
18281;DHT22;9266;51.132;17.062;2024-01-06T13:28:19;1.10;99.90
18281;DHT22;9266;51.132;17.062;2024-01-06T13:30:49;1.10;99.90
18281;DHT22;9266;51.132;17.062;2024-01-06T13:33:16;1.20;99.90
18281;DHT22;9266;51.132;17.062;2024-01-06T13:35:43;1.20;64.60
18281;DHT22;9266;51.132;17.062;2024-01-06T13:38:10;1.20;13.10
18281;DHT22;9266;51.132;17.062;2024-01-06T13:40:37;1.20;1.00
18281;DHT22;9266;51.132;17.062;2024-01-06T13:43:06;1.00;1.00
18281;DHT22;9266;51.132;17.062;2024-01-06T13:45:35;1.10;52.60
18281;DHT22;9266;51.132;17.062;2024-01-06T13:48:02;1.20;1.00
18281;DHT22;9266;51.132;17.062;2024-01-06T13:50:28;1.10;1.00
18281;DHT22;9266;51.132;17.062;2024-01-06T13:52:55;1.10;1.00
18281;DHT22;9266;51.132;17.062;2024-01-06T13:55:22;1.00;1.00
18281;DHT22;9266;51.132;17.062;2024-01-06T13:57:49;1.00;24.80
18281;DHT22;9266;51.132;17.062;2024-01-06T14:00:18;0.90;99.90
18281;DHT22;9266;51.132;17.062;2024-01-06T14:02:46;0.90;1.00
18281;DHT22;9266;51.132;17.062;2024-01-06T14:05:13;0.90;1.00
18281;DHT22;9266;51.132;17.062;2024-01-06T14:07:40;0.90;1.00
18281;DHT22;9266;51.132;17.062;2024-01-06T14:10:11;0.90;1.00
18281;DHT22;9266;51.132;17.062;2024-01-06T14:12:38;0.90;1.00
18281;DHT22;9266;51.132;17.062;2024-01-06T14:15:06;0.90;1.00
18281;DHT22;9266;51.132;17.062;2024-01-06T14:17:35;0.90;1.00
18281;DHT22;9266;51.132;17.062;2024-01-06T14:20:03;0.90;1.00
18281;DHT22;9266;51.132;17.062;2024-01-06T14:22:30;0.90;1.00
18281;DHT22;9266;51.132;17.062;2024-01-06T14:24:57;1.00;1.00
18281;DHT22;9266;51.132;17.062;2024-01-06T14:27:24;1.00;1.00
18281;DHT22;9266;51.132;17.062;2024-01-06T14:29:51;1.10;99.90
18281;DHT22;9266;51.132;17.062;2024-01-06T14:32:21;0.90;99.90
18281;DHT22;9266;51.132;17.062;2024-01-06T14:34:50;0.90;48.60
18281;DHT22;9266;51.132;17.062;2024-01-06T14:37:17;0.90;89.70
18281;DHT22;9266;51.132;17.062;2024-01-06T14:39:44;0.80;1.00
18281;DHT22;9266;51.132;17.062;2024-01-06T14:42:11;0.80;99.90
18281;DHT22;9266;51.132;17.062;2024-01-06T14:44:38;0.80;1.00
18281;DHT22;9266;51.132;17.062;2024-01-06T14:47:05;0.80;1.00
18281;DHT22;9266;51.132;17.062;2024-01-06T14:49:32;0.70;1.00
18281;DHT22;9266;51.132;17.062;2024-01-06T14:52:01;0.70;1.00
18281;DHT22;9266;51.132;17.062;2024-01-06T14:54:28;0.70;1.00
18281;DHT22;9266;51.132;17.062;2024-01-06T14:56:56;0.70;99.90
18281;DHT22;9266;51.132;17.062;2024-01-06T14:59:24;0.60;99.90
18281;DHT22;9266;51.132;17.062;2024-01-06T15:01:51;0.60;99.90
18281;DHT22;9266;51.132;17.062;2024-01-06T15:04:18;0.60;1.00
18281;DHT22;9266;51.132;17.062;2024-01-06T15:06:45;0.60;1.00
18281;DHT22;9266;51.132;17.062;2024-01-06T15:09:14;0.60;99.90
18281;DHT22;9266;51.132;17.062;2024-01-06T15:11:41;0.60;99.90
18281;DHT22;9266;51.132;17.062;2024-01-06T15:14:08;0.60;1.00
18281;DHT22;9266;51.132;17.062;2024-01-06T15:16:35;0.50;1.00
18281;DHT22;9266;51.132;17.062;2024-01-06T15:19:02;0.50;99.90
18281;DHT22;9266;51.132;17.062;2024-01-06T15:21:29;0.50;99.90
18281;DHT22;9266;51.132;17.062;2024-01-06T15:23:59;0.50;1.00
18281;DHT22;9266;51.132;17.062;2024-01-06T15:26:27;0.40;99.90
18281;DHT22;9266;51.132;17.062;2024-01-06T15:28:55;0.50;29.90
18281;DHT22;9266;51.132;17.062;2024-01-06T15:31:26;0.40;1.00
18281;DHT22;9266;51.132;17.062;2024-01-06T15:33:53;0.40;1.00
18281;DHT22;9266;51.132;17.062;2024-01-06T15:36:20;0.40;1.00
18281;DHT22;9266;51.132;17.062;2024-01-06T15:38:47;0.50;99.90
18281;DHT22;9266;51.132;17.062;2024-01-06T15:41:15;0.40;1.00
18281;DHT22;9266;51.132;17.062;2024-01-06T15:43:43;0.40;99.90
18281;DHT22;9266;51.132;17.062;2024-01-06T15:46:10;0.50;99.90
18281;DHT22;9266;51.132;17.062;2024-01-06T15:48:37;0.40;1.00
18281;DHT22;9266;51.132;17.062;2024-01-06T15:51:04;0.50;99.90
18281;DHT22;9266;51.132;17.062;2024-01-06T15:53:31;0.40;1.00
18281;DHT22;9266;51.132;17.062;2024-01-06T15:55:59;0.50;5.00